KGDV/GDV METAR and TAF weather

Enter ICAO airport designator
Station Type Date Time Source
KGDV METAR 2019/12/07 16:56 UTC NOAA

KGDV 071656Z AUTO 17007KT 10SM CLR 01/M02 A2972 RMK AO2 SLP088 T00061022 FZRANO


Station Type Date Time Source
KGDV Decoded METAR 2019/12/07 16:56 UTC NOAA

Glendive, Dawson Community Airport, MT, United States (KGDV) 47-08N 104-48W
Dec 07, 2019 - 11:56 AM EST / 2019.12.07 1656 UTC
Wind: from the S (170 degrees) at 8 MPH (7 KT):0
Visibility: 10 mile(s):0
Sky conditions: clear
Temperature: 33.1 F (0.6 C)
Windchill: 26 F (-3 C):1
Dew Point: 28.0 F (-2.2 C)
Relative Humidity: 81%
Pressure (altimeter): 29.72 in. Hg (1006 hPa)
ob: KGDV 071656Z AUTO 17007KT 10SM CLR 01/M02 A2972 RMK AO2 SLP088 T00061022 FZRANO
cycle: 17

Station Type Date Time Source
KGDV TAF 2019/12/07 18:30 UTC NOAA

TAF KGDV 071727Z 0718/0818 25011KT P6SM SCT200
FM080100 VRB06KT P6SM SCT040 OVC080
FM080700 03005KT 5SM -FZDZSN SCT010 OVC025
FM081100 06011KT 1SM -SN OVC004

Example: see airport list